createdAt,value
2022-08-18T00:00:25.299Z,98273.47
2022-08-18T00:01:40.805Z,98272.39
2022-08-18T00:02:49.746Z,98272.44
2022-08-18T00:04:14.784Z,98270.67
2022-08-18T00:05:26.153Z,98270.69
2022-08-18T00:06:29.910Z,98276.03
2022-08-18T00:07:33.812Z,98276.14
2022-08-18T00:08:38.493Z,98275.75
2022-08-18T00:09:41.761Z,98277.32
2022-08-18T00:10:43.576Z,98278.19
2022-08-18T00:11:45.707Z,98274.61
2022-08-18T00:12:47.480Z,98277.13
2022-08-18T00:13:49.345Z,98274.61
2022-08-18T00:14:52.581Z,98279.39
2022-08-18T00:15:54.550Z,98279.22
2022-08-18T00:16:56.409Z,98281.81
2022-08-18T00:17:58.285Z,98281.71
2022-08-18T00:19:00.298Z,98283.17
2022-08-18T00:20:04.285Z,98280.73
2022-08-18T00:21:06.068Z,98283.56
2022-08-18T00:22:08.760Z,98284.96
2022-08-18T00:23:16.515Z,98287.64
2022-08-18T00:24:18.568Z,98283.09
2022-08-18T00:25:20.729Z,98292.11
2022-08-18T00:26:22.551Z,98288.44
2022-08-18T00:27:30.572Z,98286.90
2022-08-18T00:28:32.421Z,98287.70
2022-08-18T00:29:34.114Z,98284.20
2022-08-18T00:30:35.839Z,98279.61
2022-08-18T00:31:37.563Z,98285.73
2022-08-18T00:32:44.002Z,98283.61
2022-08-18T00:33:45.702Z,98283.64
2022-08-18T00:34:47.453Z,98283.41
2022-08-18T00:35:49.962Z,98284.88
2022-08-18T00:36:51.731Z,98283.27
2022-08-18T00:37:56.112Z,98284.27
2022-08-18T00:38:58.109Z,98285.96
2022-08-18T00:40:01.359Z,98287.90
2022-08-18T00:41:03.811Z,98286.38
2022-08-18T00:42:28.840Z,98284.34
2022-08-18T00:43:45.467Z,98288.98
2022-08-18T00:44:47.197Z,98286.84
2022-08-18T00:45:49.576Z,98284.66
2022-08-18T00:46:51.291Z,98285.33
2022-08-18T00:47:53.727Z,98288.64
2022-08-18T00:48:56.632Z,98288.85
2022-08-18T00:49:58.812Z,98288.91
2022-08-18T00:51:08.789Z,98287.36
2022-08-18T00:52:14.172Z,98286.02
2022-08-18T00:53:33.391Z,98289.19
2022-08-18T00:54:37.649Z,98283.14
2022-08-18T00:55:43.768Z,98280.70
2022-08-18T00:57:02.266Z,98282.70
2022-08-18T00:58:15.892Z,98281.64
2022-08-18T00:59:47.029Z,98281.97
2022-08-18T01:00:51.432Z,98283.77
2022-08-18T01:02:02.454Z,98284.40
2022-08-18T01:03:12.687Z,98286.97
2022-08-18T01:04:22.023Z,98287.77
2022-08-18T01:05:41.196Z,98282.13
2022-08-18T01:06:51.852Z,98285.10
2022-08-18T01:07:53.924Z,98282.08
2022-08-18T01:08:56.179Z,98279.91
2022-08-18T01:10:01.499Z,98278.34
2022-08-18T01:11:03.409Z,98276.44
2022-08-18T01:12:44.118Z,98276.64
2022-08-18T01:13:33.008Z,98277.51
2022-08-18T01:14:34.797Z,98278.60
2022-08-18T01:15:37.918Z,98274.10
2022-08-18T01:16:58.204Z,98272.64
2022-08-18T01:18:25.208Z,98270.00
2022-08-18T01:19:46.877Z,98270.34
2022-08-18T01:21:23.381Z,98274.34
2022-08-18T01:22:49.906Z,98271.35
2022-08-18T01:23:54.619Z,98276.35
2022-08-18T01:25:19.728Z,98271.69
2022-08-18T01:26:24.222Z,98274.11
2022-08-18T01:27:27.059Z,98273.39
2022-08-18T01:28:33.952Z,98270.71
2022-08-18T01:29:41.485Z,98270.31
2022-08-18T01:30:56.132Z,98272.11
2022-08-18T01:31:57.826Z,98278.05
2022-08-18T01:32:59.514Z,98278.39
2022-08-18T01:34:01.955Z,98273.67
2022-08-18T01:35:08.570Z,98278.70
2022-08-18T01:36:20.918Z,98277.98
2022-08-18T01:37:24.488Z,98276.50
2022-08-18T01:38:26.783Z,98279.27
2022-08-18T01:41:01.823Z,98281.34
2022-08-18T01:41:24.575Z,98280.76
2022-08-18T01:42:19.225Z,98283.94
2022-08-18T01:43:21.399Z,98283.98
2022-08-18T01:44:23.113Z,98285.75
2022-08-18T01:45:24.868Z,98288.24
2022-08-18T01:46:29.656Z,98285.70
2022-08-18T01:47:47.789Z,98284.11
2022-08-18T01:48:51.179Z,98283.52
2022-08-18T01:49:53.348Z,98283.21
2022-08-18T01:50:56.905Z,98285.75
2022-08-18T01:51:58.579Z,98282.09
2022-08-18T01:53:01.206Z,98285.23
2022-08-18T01:54:05.220Z,98283.55
2022-08-18T01:55:08.030Z,98284.03
2022-08-18T01:56:09.846Z,98284.19
2022-08-18T01:57:13.512Z,98283.52
2022-08-18T01:58:15.238Z,98281.22
2022-08-18T01:59:17.462Z,98280.48
2022-08-18T02:00:19.352Z,98280.01
2022-08-18T02:01:24.683Z,98280.17
2022-08-18T02:02:39.677Z,98281.39
2022-08-18T02:03:46.855Z,98279.11
2022-08-18T02:04:50.263Z,98277.75
2022-08-18T02:05:51.996Z,98276.29
2022-08-18T02:06:55.995Z,98276.06
2022-08-18T02:07:57.931Z,98278.19
2022-08-18T02:08:59.711Z,98281.44
2022-08-18T02:10:02.043Z,98279.33
2022-08-18T02:11:05.370Z,98278.61
2022-08-18T02:12:07.953Z,98277.98
2022-08-18T02:13:10.118Z,98275.60
2022-08-18T02:14:11.809Z,98275.83
2022-08-18T02:15:13.594Z,98274.95
2022-08-18T02:16:16.877Z,98276.20
2022-08-18T02:17:19.082Z,98278.48
2022-08-18T02:18:35.388Z,98280.37
2022-08-18T02:19:48.016Z,98278.75
2022-08-18T02:20:50.026Z,98278.67
2022-08-18T02:21:53.210Z,98274.52
2022-08-18T02:22:55.112Z,98275.55
2022-08-18T02:23:56.863Z,98274.83
2022-08-18T02:24:58.566Z,98274.45
2022-08-18T02:26:05.823Z,98268.25
2022-08-18T02:27:09.200Z,98270.38
2022-08-18T02:28:11.717Z,98268.09
2022-08-18T02:29:13.712Z,98273.04
2022-08-18T02:30:19.107Z,98273.80
2022-08-18T02:31:24.288Z,98272.34
2022-08-18T02:32:26.796Z,98271.84
2022-08-18T02:33:31.197Z,98273.02
2022-08-18T02:34:33.515Z,98272.94
2022-08-18T02:35:37.101Z,98271.93
2022-08-18T02:36:39.592Z,98270.05
2022-08-18T02:37:47.801Z,98270.77
2022-08-18T02:38:54.767Z,98264.88
2022-08-18T02:40:01.593Z,98266.52
2022-08-18T02:41:06.967Z,98263.38
2022-08-18T02:42:09.270Z,98262.31
2022-08-18T02:43:11.004Z,98265.42
2022-08-18T02:44:12.719Z,98263.88
2022-08-18T02:45:14.906Z,98262.19
2022-08-18T02:46:16.654Z,98257.80
2022-08-18T02:47:22.335Z,98257.12
2022-08-18T02:48:36.009Z,98254.95
2022-08-18T02:49:37.864Z,98255.52
2022-08-18T02:50:48.834Z,98258.83
2022-08-18T02:51:52.848Z,98259.37
2022-08-18T02:52:54.846Z,98264.79
2022-08-18T02:53:59.312Z,98263.66
2022-08-18T02:55:02.917Z,98264.91
2022-08-18T02:56:39.954Z,98262.68
2022-08-18T02:57:48.899Z,98263.70
2022-08-18T02:58:59.547Z,98258.23
2022-08-18T03:00:01.252Z,98259.68
2022-08-18T03:01:03.066Z,98258.55
2022-08-18T03:02:07.465Z,98261.53
2022-08-18T03:03:09.252Z,98262.66
2022-08-18T03:04:14.370Z,98265.72
2022-08-18T03:05:17.128Z,98266.01
2022-08-18T03:06:21.167Z,98263.63
2022-08-18T03:07:22.880Z,98266.19
2022-08-18T03:08:24.648Z,98266.33
2022-08-18T03:09:27.264Z,98266.71
2022-08-18T03:10:33.200Z,98266.52
2022-08-18T03:11:37.349Z,98262.51
2022-08-18T03:12:39.108Z,98262.65
2022-08-18T03:13:40.846Z,98262.21
2022-08-18T03:14:43.599Z,98259.36
2022-08-18T03:15:45.328Z,98260.64
2022-08-18T03:16:53.578Z,98262.57
2022-08-18T03:17:56.361Z,98264.83
2022-08-18T03:18:59.244Z,98262.89
2022-08-18T03:20:01.059Z,98263.71
2022-08-18T03:21:07.717Z,98270.17
2022-08-18T03:22:27.801Z,98267.21
2022-08-18T03:23:31.416Z,98271.27
2022-08-18T03:24:33.306Z,98271.02
2022-08-18T03:25:35.071Z,98268.63
2022-08-18T03:26:42.766Z,98268.66
2022-08-18T03:27:44.485Z,98267.02
2022-08-18T03:28:49.790Z,98266.42
2022-08-18T03:29:51.762Z,98268.36
2022-08-18T03:30:53.406Z,98267.89
2022-08-18T03:31:55.443Z,98263.90
2022-08-18T03:32:57.858Z,98264.05
2022-08-18T03:34:01.575Z,98261.90
2022-08-18T03:35:04.260Z,98262.65
2022-08-18T03:36:12.196Z,98262.09
2022-08-18T03:37:16.032Z,98261.94
2022-08-18T03:38:17.801Z,98262.63
2022-08-18T03:39:22.963Z,98263.30
2022-08-18T03:40:24.733Z,98262.48
2022-08-18T03:41:43.954Z,98265.33
2022-08-18T03:42:50.776Z,98263.77
2022-08-18T03:43:53.169Z,98269.31
2022-08-18T03:44:54.908Z,98267.14
2022-08-18T03:46:01.513Z,98270.46
2022-08-18T03:47:04.063Z,98271.34
2022-08-18T03:48:05.861Z,98275.61
2022-08-18T03:49:08.039Z,98274.14
2022-08-18T03:50:09.921Z,98276.73
2022-08-18T03:51:17.760Z,98277.17
2022-08-18T03:52:19.964Z,98275.02
2022-08-18T03:53:21.788Z,98275.84
2022-08-18T03:54:23.517Z,98279.64
2022-08-18T03:55:29.221Z,98278.35
2022-08-18T03:56:36.328Z,98280.30
2022-08-18T03:57:38.907Z,98286.65
2022-08-18T03:58:41.246Z,98282.30
2022-08-18T03:59:43.547Z,98285.83
2022-08-18T04:00:45.196Z,98284.87
2022-08-18T04:01:49.304Z,98286.13
2022-08-18T04:02:51.726Z,98288.00
2022-08-18T04:04:01.661Z,98287.66
2022-08-18T04:05:05.435Z,98289.00
2022-08-18T04:06:12.099Z,98291.83
2022-08-18T04:07:17.353Z,98290.84
2022-08-18T04:08:19.156Z,98290.73
2022-08-18T04:09:24.738Z,98296.86
2022-08-18T04:10:26.681Z,98299.16
2022-08-18T04:11:28.656Z,98297.08
2022-08-18T04:12:38.578Z,98298.71
2022-08-18T04:13:41.464Z,98301.08
2022-08-18T04:14:47.739Z,98301.49
2022-08-18T04:15:49.557Z,98300.11
2022-08-18T04:16:52.333Z,98301.49
2022-08-18T04:18:03.285Z,98303.87
2022-08-18T04:19:06.628Z,98300.27
2022-08-18T04:20:08.911Z,98303.59
2022-08-18T04:21:13.721Z,98297.77
2022-08-18T04:22:17.134Z,98298.30
2022-08-18T04:23:19.534Z,98299.70
2022-08-18T04:24:21.372Z,98298.38
2022-08-18T04:25:23.123Z,98295.20
2022-08-18T04:26:24.879Z,98292.58
2022-08-18T04:27:28.889Z,98296.17
2022-08-18T04:28:31.439Z,98295.22
2022-08-18T04:29:33.199Z,98294.84
2022-08-18T04:30:36.133Z,98299.44
2022-08-18T04:31:38.090Z,98296.55
2022-08-18T04:32:39.919Z,98300.29
2022-08-18T04:33:42.317Z,98293.67
2022-08-18T04:34:44.474Z,98298.48
2022-08-18T04:35:46.996Z,98297.85
2022-08-18T04:36:51.381Z,98298.86
2022-08-18T04:37:53.188Z,98300.19
2022-08-18T04:38:56.617Z,98299.47
2022-08-18T04:39:59.815Z,98299.70
2022-08-18T04:41:01.682Z,98303.86
2022-08-18T04:42:04.972Z,98305.29
2022-08-18T04:43:06.986Z,98307.53
2022-08-18T04:44:10.668Z,98307.42
2022-08-18T04:45:13.213Z,98303.84
2022-08-18T04:46:14.967Z,98308.80
2022-08-18T04:47:16.842Z,98307.94
2022-08-18T04:48:18.656Z,98305.30
2022-08-18T04:49:26.088Z,98309.90
2022-08-18T04:50:28.087Z,98309.01
2022-08-18T04:52:36.669Z,98312.98
2022-08-18T04:53:12.333Z,98315.63
2022-08-18T04:54:14.028Z,98313.52
2022-08-18T04:55:15.789Z,98311.27
2022-08-18T04:56:27.660Z,98308.95
2022-08-18T04:57:33.097Z,98312.60
2022-08-18T04:58:36.402Z,98314.27
2022-08-18T04:59:40.288Z,98316.80
2022-08-18T05:00:44.147Z,98313.77
2022-08-18T05:01:47.921Z,98320.40
2022-08-18T05:02:49.926Z,98324.47
2022-08-18T05:03:53.900Z,98321.19
2022-08-18T05:04:55.640Z,98318.14
2022-08-18T05:05:59.846Z,98321.56
2022-08-18T05:07:01.607Z,98320.60
2022-08-18T05:08:03.673Z,98315.23
2022-08-18T05:09:08.937Z,98318.83
2022-08-18T05:10:12.495Z,98319.88
2022-08-18T05:11:15.526Z,98322.20
2022-08-18T05:12:17.658Z,98319.86
2022-08-18T05:13:22.101Z,98322.29
2022-08-18T05:14:24.775Z,98323.96
2022-08-18T05:15:26.497Z,98320.45
2022-08-18T05:16:32.792Z,98320.68
2022-08-18T05:17:39.559Z,98320.89
2022-08-18T05:18:42.760Z,98321.43
2022-08-18T05:19:45.800Z,98322.94
2022-08-18T05:20:49.565Z,98322.95
2022-08-18T05:21:53.451Z,98322.52
2022-08-18T05:23:01.558Z,98324.77
2022-08-18T05:24:05.669Z,98325.05
2022-08-18T05:25:12.317Z,98323.55
2022-08-18T05:26:15.651Z,98322.23
2022-08-18T05:27:17.336Z,98318.14
2022-08-18T05:28:19.452Z,98315.88
2022-08-18T05:29:21.962Z,98322.21
2022-08-18T05:30:25.609Z,98320.80
2022-08-18T05:31:29.086Z,98319.14
2022-08-18T05:32:48.176Z,98320.48
2022-08-18T05:33:53.108Z,98318.61
2022-08-18T05:34:54.937Z,98319.70
2022-08-18T05:36:03.856Z,98320.56
2022-08-18T05:37:21.143Z,98317.46
2022-08-18T05:38:42.527Z,98320.27
2022-08-18T05:40:08.903Z,98320.95
2022-08-18T05:41:26.187Z,98318.51
2022-08-18T05:42:35.337Z,98320.95
2022-08-18T05:43:41.627Z,98321.40
2022-08-18T05:44:55.956Z,98327.70
2022-08-18T05:46:02.615Z,98328.77
2022-08-18T05:47:32.224Z,98326.03
2022-08-18T05:48:39.767Z,98328.47
2022-08-18T05:49:49.125Z,98327.15
2022-08-18T05:50:51.291Z,98327.45
2022-08-18T05:52:13.970Z,98328.19
2022-08-18T05:53:40.983Z,98325.80
2022-08-18T05:55:11.086Z,98326.98
2022-08-18T05:56:32.451Z,98326.21
2022-08-18T05:57:47.187Z,98331.89
2022-08-18T05:58:55.780Z,98330.45
2022-08-18T05:59:58.838Z,98327.09
2022-08-18T06:01:22.910Z,98325.73
2022-08-18T06:02:39.465Z,98322.30
2022-08-18T06:03:52.811Z,98321.51
2022-08-18T06:05:05.939Z,98321.17
2022-08-18T06:06:14.229Z,98322.21
2022-08-18T06:07:25.949Z,98326.08
2022-08-18T06:08:44.879Z,98327.04
2022-08-18T06:09:54.954Z,98328.10
2022-08-18T06:10:56.928Z,98330.29
2022-08-18T06:12:20.865Z,98332.02
2022-08-18T06:13:22.893Z,98331.46
2022-08-18T06:14:25.310Z,98333.54
2022-08-18T06:15:54.604Z,98334.16
2022-08-18T06:17:13.251Z,98335.13
2022-08-18T06:18:30.049Z,98341.85
2022-08-18T06:19:43.897Z,98342.52
2022-08-18T06:21:12.915Z,98346.21
2022-08-18T06:22:36.261Z,98343.45
2022-08-18T06:24:12.428Z,98341.77
2022-08-18T06:25:34.690Z,98341.61
2022-08-18T06:27:00.378Z,98342.38
2022-08-18T06:28:14.151Z,98340.35
2022-08-18T06:29:37.380Z,98338.71
2022-08-18T06:30:41.683Z,98335.70
2022-08-18T06:32:14.454Z,98336.04
2022-08-18T06:34:00.697Z,98332.36
2022-08-18T06:35:18.414Z,98330.79
2022-08-18T06:36:45.354Z,98335.88
2022-08-18T06:38:38.475Z,98334.79
2022-08-18T06:39:50.565Z,98336.27
2022-08-18T06:41:41.764Z,98339.98
2022-08-18T06:42:36.575Z,98344.45
2022-08-18T06:44:03.246Z,98345.16
2022-08-18T06:45:14.095Z,98343.41
2022-08-18T06:46:23.985Z,98343.67
2022-08-18T06:47:44.619Z,98342.48
2022-08-18T06:48:55.138Z,98342.27
2022-08-18T06:50:15.380Z,98345.27
2022-08-18T06:51:21.750Z,98345.09
2022-08-18T06:52:34.308Z,98347.23
2022-08-18T06:54:00.247Z,98346.45
2022-08-18T06:55:11.553Z,98348.77
2022-08-18T06:56:25.798Z,98347.95
2022-08-18T06:57:33.527Z,98348.96
2022-08-18T06:58:35.569Z,98346.46
2022-08-18T06:59:38.468Z,98346.21
2022-08-18T07:01:07.913Z,98348.48
2022-08-18T07:02:27.664Z,98348.37
2022-08-18T07:03:35.400Z,98349.71
2022-08-18T07:04:40.173Z,98347.15
2022-08-18T07:06:02.763Z,98348.86
2022-08-18T07:07:15.627Z,98352.58
2022-08-18T07:08:35.641Z,98351.83
2022-08-18T07:09:40.557Z,98355.37
2022-08-18T07:10:51.440Z,98356.22
2022-08-18T07:12:08.795Z,98360.11
2022-08-18T07:13:13.070Z,98357.69
2022-08-18T07:14:24.426Z,98363.70
2022-08-18T07:15:26.185Z,98364.41
2022-08-18T07:16:54.445Z,98369.64
2022-08-18T07:17:49.487Z,98369.12
2022-08-18T07:18:52.584Z,98368.10
2022-08-18T07:20:01.465Z,98368.98
2022-08-18T07:21:03.197Z,98365.16
2022-08-18T07:22:14.517Z,98365.33
2022-08-18T07:23:39.180Z,98366.14
2022-08-18T07:24:45.251Z,98364.13
2022-08-18T07:25:58.401Z,98364.60
2022-08-18T07:27:17.579Z,98364.79
2022-08-18T07:28:47.644Z,98365.73
2022-08-18T07:30:30.037Z,98362.34
2022-08-18T07:31:46.516Z,98362.23
2022-08-18T07:33:12.592Z,98361.48
2022-08-18T07:34:27.466Z,98358.17
2022-08-18T07:35:45.791Z,98359.85
2022-08-18T07:37:09.512Z,98361.92
2022-08-18T07:38:45.605Z,98359.09
2022-08-18T07:40:18.118Z,98355.90
2022-08-18T07:41:31.877Z,98352.16
2022-08-18T07:43:00.708Z,98354.90
2022-08-18T07:44:45.454Z,98355.23
2022-08-18T07:45:48.020Z,98355.48
2022-08-18T07:47:18.207Z,98353.52
2022-08-18T07:48:38.234Z,98359.32
2022-08-18T07:50:13.626Z,98357.11
2022-08-18T07:51:13.724Z,98355.07
2022-08-18T07:52:36.648Z,98357.70
2022-08-18T07:54:44.941Z,98360.48
2022-08-18T07:55:37.133Z,98363.05
2022-08-18T07:56:57.515Z,98363.87
2022-08-18T07:58:25.062Z,98363.80
2022-08-18T07:59:39.689Z,98364.63
2022-08-18T08:00:58.611Z,98365.86
2022-08-18T08:02:28.596Z,98360.91
2022-08-18T08:03:51.884Z,98362.52
2022-08-18T08:05:30.975Z,98364.98
2022-08-18T08:06:41.346Z,98362.92
2022-08-18T08:08:10.265Z,98361.04
2022-08-18T08:09:24.434Z,98367.70
2022-08-18T08:10:55.037Z,98365.48
2022-08-18T08:12:14.453Z,98367.39
2022-08-18T08:13:54.693Z,98370.02
2022-08-18T08:15:17.678Z,98372.00
2022-08-18T08:16:47.314Z,98369.20
2022-08-18T08:18:25.395Z,98369.91
2022-08-18T08:19:59.473Z,98373.96
2022-08-18T08:21:20.092Z,98369.70
2022-08-18T08:22:36.276Z,98373.60
2022-08-18T08:23:54.500Z,98374.02
2022-08-18T08:25:45.296Z,98371.59
2022-08-18T08:27:18.356Z,98367.65
2022-08-18T08:28:41.638Z,98368.50
2022-08-18T08:30:08.940Z,98370.84
2022-08-18T08:31:43.252Z,98367.38
2022-08-18T08:33:06.562Z,98364.47
2022-08-18T08:34:41.647Z,98360.09
2022-08-18T08:35:58.921Z,98359.77
2022-08-18T08:37:04.491Z,98359.79
2022-08-18T08:38:39.293Z,98356.30
2022-08-18T08:39:58.010Z,98356.26
2022-08-18T08:41:07.285Z,98358.02
2022-08-18T08:42:37.450Z,98356.14
2022-08-18T08:43:53.689Z,98361.96
2022-08-18T08:45:01.258Z,98358.59
2022-08-18T08:46:11.333Z,98357.49
2022-08-18T08:47:24.551Z,98357.17
2022-08-18T08:48:35.652Z,98354.48
2022-08-18T08:49:46.095Z,98353.60
2022-08-18T08:51:04.077Z,98349.56
2022-08-18T08:52:23.201Z,98351.48
2022-08-18T08:53:36.438Z,98351.33
2022-08-18T08:54:50.222Z,98353.71
2022-08-18T08:56:02.737Z,98353.87
2022-08-18T08:57:07.144Z,98356.33
2022-08-18T08:58:33.772Z,98357.05
2022-08-18T08:59:39.539Z,98357.36
2022-08-18T09:00:43.587Z,98358.03
2022-08-18T09:02:08.014Z,98361.04
2022-08-18T09:03:42.735Z,98363.33
2022-08-18T09:04:54.718Z,98362.84
2022-08-18T09:06:32.030Z,98366.66
2022-08-18T09:07:51.670Z,98360.47
2022-08-18T09:09:05.194Z,98362.30
2022-08-18T09:10:28.441Z,98364.38
2022-08-18T09:11:45.526Z,98367.70
2022-08-18T09:13:05.411Z,98369.38
2022-08-18T09:14:39.112Z,98367.46
2022-08-18T09:16:18.513Z,98368.64
2022-08-18T09:17:50.838Z,98371.83
2022-08-18T09:19:12.883Z,98367.27
2022-08-18T09:20:33.076Z,98368.76
2022-08-18T09:21:46.815Z,98368.26
2022-08-18T09:22:56.289Z,98369.04
2022-08-18T09:24:20.918Z,98366.39
2022-08-18T09:25:43.849Z,98369.20
2022-08-18T09:27:14.221Z,98367.77
2022-08-18T09:28:25.991Z,98369.71
2022-08-18T09:30:01.970Z,98371.77
2022-08-18T09:31:08.561Z,98369.86
2022-08-18T09:32:20.016Z,98372.80
2022-08-18T09:33:44.434Z,98370.92
2022-08-18T09:35:17.160Z,98378.52
2022-08-18T09:36:31.120Z,98378.71
2022-08-18T09:39:56.532Z,98369.42
2022-08-18T09:41:27.244Z,98371.89
2022-08-18T09:44:21.587Z,98368.06
2022-08-18T09:45:34.451Z,98363.77
2022-08-18T09:46:47.947Z,98360.30
2022-08-18T09:47:52.878Z,98364.98
2022-08-18T09:49:26.769Z,98363.50
2022-08-18T09:50:28.478Z,98365.25
2022-08-18T09:51:39.928Z,98370.30
2022-08-18T09:52:42.672Z,98370.46
2022-08-18T09:53:46.066Z,98370.48
2022-08-18T09:54:59.544Z,98372.88
2022-08-18T09:56:05.177Z,98370.97
2022-08-18T09:57:19.661Z,98372.21
2022-08-18T09:58:26.190Z,98370.25
2022-08-18T09:59:34.283Z,98369.94
2022-08-18T10:00:36.465Z,98370.31
2022-08-18T10:01:41.939Z,98369.33
2022-08-18T10:02:47.617Z,98368.50
2022-08-18T10:04:15.091Z,98365.73
2022-08-18T10:05:22.570Z,98364.67
2022-08-18T10:06:28.020Z,98362.73
2022-08-18T10:07:41.883Z,98361.67
2022-08-18T10:09:02.678Z,98357.34
2022-08-18T10:11:00.897Z,98355.82
2022-08-18T10:11:59.868Z,98360.25
2022-08-18T10:13:24.743Z,98356.11
2022-08-18T10:14:55.641Z,98356.67
2022-08-18T10:16:21.372Z,98354.20
2022-08-18T10:17:51.076Z,98357.20
2022-08-18T10:19:33.949Z,98354.02
2022-08-18T10:20:56.452Z,98352.67
2022-08-18T10:22:01.458Z,98349.08
2022-08-18T10:23:04.644Z,98345.30
2022-08-18T10:25:46.475Z,98346.23
2022-08-18T10:26:54.030Z,98346.65
2022-08-18T10:27:57.738Z,98349.09
2022-08-18T10:29:07.930Z,98352.50
2022-08-18T10:30:31.056Z,98352.80
2022-08-18T10:31:57.856Z,98349.20
2022-08-18T10:33:18.025Z,98346.03
2022-08-18T10:34:52.392Z,98346.79
2022-08-18T10:35:59.638Z,98345.55
2022-08-18T10:37:06.315Z,98350.16
2022-08-18T10:38:22.855Z,98347.04
2022-08-18T10:39:46.535Z,98348.23
2022-08-18T10:41:09.415Z,98350.83
2022-08-18T10:42:35.986Z,98353.02
2022-08-18T10:43:57.645Z,98352.27
2022-08-18T10:45:10.498Z,98351.52
2022-08-18T10:46:25.005Z,98354.41
2022-08-18T10:47:33.486Z,98353.27
2022-08-18T10:48:35.747Z,98351.35
2022-08-18T10:49:49.289Z,98350.36
2022-08-18T10:51:59.537Z,98350.88
2022-08-18T10:55:16.638Z,98352.67
2022-08-18T10:56:49.942Z,98352.11
2022-08-18T10:58:09.609Z,98350.79
2022-08-18T10:59:47.677Z,98347.81
2022-08-18T11:01:20.551Z,98344.29
2022-08-18T11:02:48.967Z,98343.78
2022-08-18T11:04:14.098Z,98340.02
2022-08-18T11:05:24.710Z,98346.81
2022-08-18T11:06:27.821Z,98345.52
2022-08-18T11:07:34.412Z,98343.14
2022-08-18T11:08:45.075Z,98344.27
2022-08-18T11:10:04.458Z,98340.02
2022-08-18T11:11:37.189Z,98335.31
2022-08-18T11:12:52.904Z,98337.59
2022-08-18T11:14:08.661Z,98341.08
2022-08-18T11:15:23.615Z,98339.97
2022-08-18T11:16:43.886Z,98341.20
2022-08-18T11:18:14.774Z,98336.69
2022-08-18T11:19:20.283Z,98333.88
2022-08-18T11:20:31.479Z,98329.15
2022-08-18T11:21:43.404Z,98328.48
2022-08-18T11:22:56.372Z,98325.98
2022-08-18T11:24:07.702Z,98325.78
2022-08-18T11:25:29.881Z,98327.62
2022-08-18T11:26:35.511Z,98320.80
2022-08-18T11:27:47.403Z,98327.48
2022-08-18T11:28:50.126Z,98324.56
2022-08-18T11:29:58.828Z,98323.48
2022-08-18T11:31:01.067Z,98323.55
2022-08-18T11:33:31.150Z,98320.85
2022-08-18T11:36:08.461Z,98319.65
2022-08-18T11:37:27.776Z,98317.72
2022-08-18T11:38:31.612Z,98320.29
2022-08-18T11:39:49.233Z,98312.15
2022-08-18T11:41:13.571Z,98315.52
2022-08-18T11:42:24.960Z,98316.29
2022-08-18T11:43:41.513Z,98314.31
2022-08-18T11:44:45.824Z,98312.29
2022-08-18T11:46:16.431Z,98312.42
2022-08-18T11:48:52.714Z,98314.94
2022-08-18T11:50:12.504Z,98316.34
2022-08-18T11:51:27.197Z,98317.93
2022-08-18T11:53:58.921Z,98316.34
2022-08-18T11:56:38.215Z,98312.58
2022-08-18T11:57:54.496Z,98314.02
2022-08-18T11:59:09.480Z,98309.79
2022-08-18T12:00:42.831Z,98311.42
2022-08-18T12:01:52.004Z,98312.05
2022-08-18T12:03:08.695Z,98317.23
2022-08-18T12:04:13.449Z,98309.94
2022-08-18T12:05:15.234Z,98308.81
2022-08-18T12:06:32.148Z,98307.73
2022-08-18T12:07:35.887Z,98301.14
2022-08-18T12:08:57.036Z,98296.35
2022-08-18T12:10:26.296Z,98297.73
2022-08-18T12:11:48.738Z,98292.02
2022-08-18T12:12:54.051Z,98293.69
2022-08-18T12:14:31.865Z,98296.16
2022-08-18T12:15:43.472Z,98289.06
2022-08-18T12:16:50.210Z,98286.97
2022-08-18T12:17:53.795Z,98285.99
2022-08-18T12:18:55.739Z,98284.36
2022-08-18T12:19:59.741Z,98277.27
2022-08-18T12:21:02.823Z,98277.37
2022-08-18T12:22:17.620Z,98278.13
2022-08-18T12:23:19.391Z,98274.95
2022-08-18T12:24:36.760Z,98276.05
2022-08-18T12:25:51.808Z,98277.77
2022-08-18T12:26:54.478Z,98279.29
2022-08-18T12:27:57.695Z,98275.46
2022-08-18T12:30:21.297Z,98273.39
2022-08-18T12:31:22.946Z,98271.63
2022-08-18T12:32:49.491Z,98272.90
2022-08-18T12:34:00.708Z,98268.65
2022-08-18T12:35:09.317Z,98266.55
2022-08-18T12:36:12.188Z,98263.41
2022-08-18T12:37:58.377Z,98260.23
2022-08-18T12:38:52.197Z,98256.64
2022-08-18T12:39:59.640Z,98252.79
2022-08-18T12:41:01.665Z,98255.17
2022-08-18T12:42:04.983Z,98261.20
2022-08-18T12:43:08.073Z,98255.23
2022-08-18T12:44:13.177Z,98256.41
2022-08-18T12:45:15.652Z,98259.90
2022-08-18T12:46:18.256Z,98261.77
2022-08-18T12:47:25.682Z,98259.28
2022-08-18T12:48:32.846Z,98255.40
2022-08-18T12:49:36.147Z,98257.82
2022-08-18T12:50:54.523Z,98250.98
2022-08-18T12:52:00.402Z,98252.58
2022-08-18T12:53:05.805Z,98250.70
2022-08-18T12:54:10.554Z,98248.39
2022-08-18T12:56:36.422Z,98240.52
2022-08-18T12:57:53.391Z,98235.66
2022-08-18T12:58:56.954Z,98236.03
2022-08-18T12:59:59.334Z,98237.42
2022-08-18T13:01:01.469Z,98235.36
2022-08-18T13:02:05.928Z,98235.33
2022-08-18T13:03:08.588Z,98235.60
2022-08-18T13:04:12.876Z,98234.98
2022-08-18T13:05:15.459Z,98232.36
2022-08-18T13:06:17.654Z,98231.27
2022-08-18T13:07:20.560Z,98231.41
2022-08-18T13:08:30.731Z,98226.92
2022-08-18T13:09:52.770Z,98229.39
2022-08-18T13:10:58.227Z,98229.17
2022-08-18T13:12:00.367Z,98227.97
2022-08-18T13:13:02.140Z,98226.00
2022-08-18T13:14:08.984Z,98224.21
2022-08-18T13:15:11.343Z,98222.73
2022-08-18T13:16:16.502Z,98222.21
2022-08-18T13:17:34.322Z,98225.17
2022-08-18T13:18:37.621Z,98226.02
2022-08-18T13:19:39.433Z,98226.85
2022-08-18T13:20:45.225Z,98227.51
2022-08-18T13:21:47.750Z,98226.92
2022-08-18T13:22:51.528Z,98230.27
2022-08-18T13:23:55.108Z,98231.24
2022-08-18T13:24:56.814Z,98229.83
2022-08-18T13:26:03.225Z,98230.84
2022-08-18T13:27:18.467Z,98231.92
2022-08-18T13:28:24.628Z,98232.88
2022-08-18T13:29:32.183Z,98237.45
2022-08-18T13:30:35.581Z,98236.42
2022-08-18T13:31:38.638Z,98235.70
2022-08-18T13:32:43.783Z,98234.69
2022-08-18T13:34:00.667Z,98234.08
2022-08-18T13:35:08.971Z,98238.70
2022-08-18T13:36:15.091Z,98236.80
2022-08-18T13:37:16.750Z,98238.12
2022-08-18T13:38:27.221Z,98242.55
2022-08-18T13:39:31.364Z,98244.87
2022-08-18T13:40:38.048Z,98246.42
2022-08-18T13:41:52.092Z,98245.46
2022-08-18T13:42:54.418Z,98247.23
2022-08-18T13:43:58.816Z,98249.56
2022-08-18T13:45:25.367Z,98250.31
2022-08-18T13:46:30.930Z,98254.94
2022-08-18T13:47:38.073Z,98258.09
2022-08-18T13:48:41.675Z,98260.79
2022-08-18T13:49:43.547Z,98259.64
2022-08-18T13:51:02.010Z,98255.16
2022-08-18T13:52:12.224Z,98248.78
2022-08-18T13:53:29.883Z,98243.79
2022-08-18T13:54:35.271Z,98243.27
2022-08-18T13:55:37.057Z,98241.67
2022-08-18T13:56:39.794Z,98238.04
2022-08-18T13:57:50.290Z,98242.83
2022-08-18T13:58:55.352Z,98246.52
2022-08-18T13:59:57.532Z,98247.80
2022-08-18T14:01:39.777Z,98250.17
2022-08-18T14:02:26.813Z,98244.04
2022-08-18T14:03:42.321Z,98244.61
2022-08-18T14:04:49.325Z,98242.02
2022-08-18T14:06:01.059Z,98241.52
2022-08-18T14:07:09.613Z,98244.45
2022-08-18T14:08:19.235Z,98243.61
2022-08-18T14:09:27.756Z,98243.14
2022-08-18T14:10:38.467Z,98241.18